Time;durP1;ratioP1;P1;durP2;ratioP2;P2;SDS_P1;SDS_P2;PMS_P1;PMS_P2;Temp;Humidity;BMP_temperature;BMP_pressure;BME280_temperature;BME280_humidity;BME280_pressure;Samples;Min_cycle;Max_cycle;Signal;HPM_P1;HPM_P2
2022/04/16 00:01:23;;;;;;;24.35;18.38;;;;;;;6.28;100.00;101874.69;5028649;28;20051;-58
2022/04/16 00:03:48;;;;;;;22.17;18.13;;;;;;;6.22;100.00;101866.91;5028001;28;20454;-58
2022/04/16 00:06:14;;;;;;;21.92;18.27;;;;;;;6.24;100.00;101873.84;5043119;28;20471;-58
2022/04/16 00:08:40;;;;;;;19.85;17.17;;;;;;;6.24;100.00;101872.97;5074510;28;20024;-58
2022/04/16 00:11:06;;;;;;;23.20;17.45;;;;;;;6.25;100.00;101879.94;5074544;28;20032;-58
2022/04/16 00:13:32;;;;;;;24.13;19.08;;;;;;;6.24;100.00;101878.19;5074467;28;20045;-58
2022/04/16 00:15:58;;;;;;;21.90;17.98;;;;;;;6.20;100.00;101872.13;5074235;28;20032;-58
2022/04/16 00:18:24;;;;;;;22.67;18.48;;;;;;;6.15;100.00;101864.31;5073971;28;20158;-58
2022/04/16 00:20:49;;;;;;;22.15;18.52;;;;;;;6.19;100.00;101875.59;5074353;28;20464;-58
2022/04/16 00:23:16;;;;;;;26.23;18.63;;;;;;;6.13;100.00;101866.09;5074357;28;20119;-58
2022/04/16 00:25:42;;;;;;;21.75;18.00;;;;;;;6.15;100.00;101866.09;5073988;28;20150;-58
2022/04/16 00:28:08;;;;;;;24.13;19.67;;;;;;;6.09;100.00;101856.56;5056093;28;20037;-58
2022/04/16 00:30:37;;;;;;;28.73;20.25;;;;;;;6.10;100.00;101867.88;5073950;28;20028;-58
2022/04/16 00:33:15;;;;;;;24.27;19.23;;;;;;;5.87;100.00;101838.50;5074264;28;20036;-58
2022/04/16 00:35:44;;;;;;;27.85;19.63;;;;;;;6.05;100.00;101875.72;5027758;28;20132;-58
2022/04/16 00:38:10;;;;;;;26.30;18.98;;;;;;;6.02;100.00;101873.13;5027369;28;20086;-58
2022/04/16 00:40:35;;;;;;;24.38;19.67;;;;;;;6.01;100.00;101870.56;5027125;28;20026;-58
2022/04/16 00:43:02;;;;;;;31.38;20.95;;;;;;;5.83;100.00;101837.63;5028419;28;20024;-58
2022/04/16 00:45:28;;;;;;;27.10;20.85;;;;;;;6.02;100.00;101877.47;5040450;28;20052;-59
2022/04/16 00:47:54;;;;;;;23.13;20.52;;;;;;;5.97;100.00;101869.72;5031133;28;20038;-58
2022/04/16 00:50:19;;;;;;;25.02;21.00;;;;;;;5.86;100.00;101861.09;5035988;28;20033;-58
2022/04/16 00:52:45;;;;;;;29.60;21.67;;;;;;;5.96;100.00;101874.94;5027326;28;20085;-58
2022/04/16 00:55:11;;;;;;;24.75;20.55;;;;;;;5.93;100.00;101881.03;5027542;28;20910;-58
2022/04/16 00:57:41;;;;;;;25.98;22.13;;;;;;;5.93;100.00;101883.66;5027367;28;20052;-58
2022/04/16 01:00:08;;;;;;;21.70;19.33;;;;;;;5.90;100.00;101875.84;5026974;28;20797;-58
2022/04/16 01:02:35;;;;;;;28.10;21.88;;;;;;;5.92;100.00;101873.22;5044446;28;20029;-58
2022/04/16 01:05:00;;;;;;;28.90;22.08;;;;;;;5.92;100.00;101881.03;5055809;28;20036;-58
2022/04/16 01:07:26;;;;;;;26.42;22.48;;;;;;;5.87;100.00;101868.06;5073449;28;20085;-58
2022/04/16 01:09:52;;;;;;;33.40;21.40;;;;;;;5.91;100.00;101888.03;5070127;28;20028;-58
2022/04/16 01:12:18;;;;;;;25.15;19.95;;;;;;;5.86;100.00;101879.34;5073450;28;20532;-58
2022/04/16 01:14:45;;;;;;;28.35;21.13;;;;;;;5.91;100.00;101889.75;5073441;28;20028;-58
2022/04/16 01:17:11;;;;;;;27.77;23.42;;;;;;;5.89;100.00;101887.16;5073415;28;20106;-58
2022/04/16 01:19:37;;;;;;;26.73;22.48;;;;;;;5.71;100.00;101866.41;5072942;28;20036;-58
2022/04/16 01:22:05;;;;;;;23.60;20.00;;;;;;;5.85;100.00;101893.22;5073333;28;20035;-58
2022/04/16 01:24:30;;;;;;;27.88;21.58;;;;;;;5.80;100.00;101892.41;5073265;28;20044;-58
2022/04/16 01:26:58;;;;;;;24.48;21.55;;;;;;;5.79;100.00;101897.63;5072889;28;20036;-58
2022/04/16 01:29:24;;;;;;;32.58;24.38;;;;;;;5.84;100.00;101904.56;5072588;28;20086;-58
2022/04/16 01:31:49;;;;;;;27.63;23.05;;;;;;;5.51;100.00;101847.38;5073023;28;20025;-58
2022/04/16 01:34:17;;;;;;;25.48;22.08;;;;;;;5.81;100.00;101909.78;5072985;28;20029;-58
2022/04/16 01:36:43;;;;;;;28.10;22.85;;;;;;;5.61;100.00;101873.38;5072502;28;20028;-58
2022/04/16 01:39:08;;;;;;;25.83;22.20;;;;;;;5.74;100.00;101897.66;5072365;28;20036;-58
2022/04/16 01:41:34;;;;;;;30.60;25.38;;;;;;;5.65;100.00;101893.34;5087022;28;20367;-59
2022/04/16 01:43:59;;;;;;;28.70;23.48;;;;;;;5.72;100.00;101903.75;5092901;28;20028;-58
2022/04/16 01:46:25;;;;;;;26.92;24.05;;;;;;;5.72;100.00;101912.44;5061783;28;20055;-58
2022/04/16 01:48:54;;;;;;;29.02;23.35;;;;;;;5.54;100.00;101894.31;5026094;28;20139;-58
2022/04/16 01:51:20;;;;;;;29.02;24.02;;;;;;;5.65;100.00;101911.59;5027186;28;20889;-58
2022/04/16 01:53:46;;;;;;;32.42;25.52;;;;;;;5.66;100.00;101920.31;5026956;28;20131;-58
2022/04/16 01:56:11;;;;;;;28.13;24.95;;;;;;;5.62;100.00;101902.94;5007966;28;20032;-58
2022/04/16 01:58:38;;;;;;;30.98;24.35;;;;;;;5.66;100.00;101909.88;5027834;28;20028;-58
2022/04/16 02:01:05;;;;;;;28.10;23.95;;;;;;;5.55;100.00;101902.09;5032797;28;20048;-58
2022/04/16 02:03:31;;;;;;;32.55;26.13;;;;;;;5.43;100.00;101880.47;5039883;28;20090;-58
2022/04/16 02:05:56;;;;;;;35.05;25.15;;;;;;;5.63;100.00;101915.97;5029650;28;20036;-58
2022/04/16 02:08:22;;;;;;;31.40;26.05;;;;;;;5.60;100.00;101915.13;5052692;28;20018;-58
2022/04/16 02:10:47;;;;;;;30.90;24.38;;;;;;;5.49;100.00;101902.16;5072331;28;20036;-59
2022/04/16 02:13:12;;;;;;;31.80;25.10;;;;;;;5.54;100.00;101917.78;5072129;28;20048;-59
2022/04/16 02:15:38;;;;;;;30.65;25.73;;;;;;;5.40;100.00;101899.59;5072149;28;20111;-59
2022/04/16 02:18:04;;;;;;;35.33;26.65;;;;;;;5.48;100.00;101929.06;5072381;28;20451;-59
2022/04/16 02:20:30;;;;;;;38.47;28.75;;;;;;;5.46;100.00;101916.94;5072360;28;20028;-58
2022/04/16 02:22:55;;;;;;;29.45;26.35;;;;;;;5.45;100.00;101917.78;5072307;28;20486;-58
2022/04/16 02:25:24;;;;;;;30.23;27.02;;;;;;;5.44;100.00;101918.69;5063567;28;20033;-59
2022/04/16 02:27:49;;;;;;;30.73;27.30;;;;;;;5.43;100.00;101928.25;5031159;28;20040;-59
2022/04/16 02:30:15;;;;;;;34.05;27.17;;;;;;;5.39;100.00;101926.53;5030907;28;20821;-59
2022/04/16 02:32:45;;;;;;;31.63;26.60;;;;;;;5.23;100.00;101892.72;5031229;28;20136;-59
2022/04/16 02:35:15;;;;;;;31.80;26.77;;;;;;;5.37;100.00;101922.19;5030556;28;20572;-58
2022/04/16 02:37:41;;;;;;;39.92;28.23;;;;;;;5.35;100.00;101921.31;5031385;28;20024;-58
2022/04/16 02:40:07;;;;;;;33.95;26.90;;;;;;;5.31;100.00;101930.00;5031885;28;20072;-59
2022/04/16 02:42:36;;;;;;;33.60;29.27;;;;;;;5.34;100.00;101927.44;5014168;28;20033;-58
2022/04/16 02:47:52;;;;;;;40.85;30.45;;;;;;;5.26;100.00;101917.03;5030723;28;20110;-59
2022/04/16 02:50:18;;;;;;;39.70;29.92;;;;;;;5.15;100.00;101891.00;5033275;28;20914;-58
2022/04/16 02:52:46;;;;;;;38.78;31.10;;;;;;;5.37;100.00;101935.22;5033860;28;20031;-60
2022/04/16 02:55:15;;;;;;;38.85;29.75;;;;;;;5.37;100.00;101943.03;5034400;28;20028;-58
2022/04/16 02:57:42;;;;;;;39.03;30.27;;;;;;;5.39;100.00;101949.09;5035241;28;20044;-59
2022/04/16 03:00:09;;;;;;;49.13;30.75;;;;;;;5.37;100.00;101940.44;5033856;28;20118;-59
2022/04/16 03:02:35;;;;;;;41.72;31.30;;;;;;;5.34;100.00;101943.91;5033026;28;20957;-59
2022/04/16 03:05:02;;;;;;;36.67;31.52;;;;;;;5.27;100.00;101931.81;5033135;28;20044;-59
2022/04/16 03:07:27;;;;;;;36.00;30.42;;;;;;;5.29;100.00;101942.19;5033128;28;20284;-59
2022/04/16 03:09:52;;;;;;;39.05;31.25;;;;;;;5.24;100.00;101941.38;5042780;28;20908;-59
2022/04/16 03:12:18;;;;;;;39.47;30.08;;;;;;;5.20;100.00;101930.09;5035964;28;20095;-59
2022/04/16 03:17:33;;;;;;;37.13;31.60;;;;;;;5.24;100.00;101946.56;5034465;28;20102;-59
2022/04/16 03:19:59;;;;;;;36.67;30.80;;;;;;;5.01;100.00;101916.25;5034381;28;20965;-59
2022/04/16 03:22:25;;;;;;;36.50;29.65;;;;;;;5.19;100.00;101956.13;5034622;28;20056;-59
2022/04/16 03:24:51;;;;;;;42.58;32.00;;;;;;;5.14;100.00;101946.59;5015766;28;20870;-59
2022/04/16 03:27:16;;;;;;;44.15;31.45;;;;;;;5.13;100.00;101950.09;5034052;28;20032;-59
2022/04/16 03:29:42;;;;;;;38.25;31.42;;;;;;;4.89;100.00;101912.81;5033412;28;20031;-58
2022/04/16 03:32:07;;;;;;;37.95;33.83;;;;;;;5.04;100.00;101944.88;5033377;28;20032;-59
2022/04/16 03:34:33;;;;;;;40.40;34.13;;;;;;;5.02;100.00;101944.03;5057258;28;20123;-59
2022/04/16 03:36:58;;;;;;;43.40;35.90;;;;;;;5.09;100.00;101953.56;5075430;28;20032;-59
2022/04/16 03:39:24;;;;;;;47.38;36.00;;;;;;;5.04;100.00;101947.47;5075244;28;20062;-59
2022/04/16 03:41:49;;;;;;;40.95;34.85;;;;;;;5.03;100.00;101957.94;5075007;28;20036;-58
2022/04/16 03:44:15;;;;;;;38.83;33.72;;;;;;;4.98;100.00;101944.91;5074807;28;20527;-58
2022/04/16 03:46:40;;;;;;;44.70;33.95;;;;;;;5.00;100.00;101947.50;5075033;28;20032;-58
2022/04/16 03:49:05;;;;;;;39.63;33.85;;;;;;;4.97;100.00;101958.78;5074874;28;20033;-58
2022/04/16 03:51:31;;;;;;;47.40;34.33;;;;;;;4.91;100.00;101947.50;5074880;28;20028;-58
2022/04/16 03:59:59;;;;;;;45.92;35.17;;;;;;;4.91;100.00;101955.31;5075059;28;20036;-58
2022/04/16 04:00:02;;;;;;;43.05;35.13;;;;;;;4.84;100.00;101957.06;4991085;28;20108;-58
2022/04/16 04:02:29;;;;;;;42.70;35.72;;;;;;;4.75;100.00;101944.09;5027981;28;20151;-59
2022/04/16 04:04:55;;;;;;;47.97;37.40;;;;;;;4.77;100.00;101950.13;5031058;28;20035;-58
2022/04/16 04:07:20;;;;;;;41.45;35.95;;;;;;;4.60;100.00;101931.06;5031469;28;20122;-58
2022/04/16 04:09:46;;;;;;;41.85;36.08;;;;;;;4.61;100.00;101933.69;5031288;28;21177;-58
2022/04/16 04:12:12;;;;;;;44.97;37.30;;;;;;;4.74;100.00;101957.97;5031813;28;20083;-58
2022/04/16 04:14:39;;;;;;;42.80;37.88;;;;;;;4.72;100.00;101962.31;5031335;28;20032;-58
2022/04/16 04:17:06;;;;;;;41.88;36.28;;;;;;;4.54;100.00;101928.47;5031726;28;20024;-58
2022/04/16 04:19:33;;;;;;;47.22;36.80;;;;;;;4.71;100.00;101964.91;5031196;28;20078;-58
2022/04/16 04:21:58;;;;;;;48.33;39.13;;;;;;;4.64;100.00;101954.50;5032153;28;20025;-58
2022/04/16 04:24:24;;;;;;;50.60;39.85;;;;;;;4.64;100.00;101962.31;5032591;28;20036;-59
2022/04/16 04:26:49;;;;;;;47.90;39.30;;;;;;;4.61;100.00;101964.91;5034330;28;20155;-59
2022/04/16 04:29:14;;;;;;;43.10;37.55;;;;;;;4.54;100.00;101957.09;5014231;28;20037;-59
2022/04/16 04:31:40;;;;;;;48.47;39.30;;;;;;;4.59;100.00;101976.22;5031968;28;20823;-59
2022/04/16 04:34:05;;;;;;;47.22;39.55;;;;;;;4.45;100.00;101951.91;5032734;28;20028;-58
2022/04/16 04:36:31;;;;;;;42.78;37.03;;;;;;;4.59;100.00;101986.63;5032037;28;20045;-59
2022/04/16 04:38:56;;;;;;;47.45;39.88;;;;;;;4.40;100.00;101956.25;5030448;28;20036;-59
2022/04/16 04:41:21;;;;;;;46.95;39.20;;;;;;;4.55;100.00;101990.97;5031128;28;20048;-59
2022/04/16 04:43:47;;;;;;;47.38;41.35;;;;;;;4.55;100.00;101984.88;5030710;28;20823;-59
2022/04/16 04:46:12;;;;;;;54.60;42.30;;;;;;;4.55;100.00;101995.28;5032275;28;20024;-59
2022/04/16 04:48:37;;;;;;;48.65;39.25;;;;;;;4.54;100.00;101990.94;5030775;28;20952;-59
2022/04/16 04:51:03;;;;;;;53.10;42.50;;;;;;;4.51;100.00;101983.13;5031997;28;20026;-58
2022/04/16 04:53:28;;;;;;;52.92;41.92;;;;;;;4.59;100.00;101991.81;5013425;28;20073;-59
2022/04/16 04:55:53;;;;;;;51.75;44.90;;;;;;;4.60;100.00;101998.75;5040454;28;20115;-59
2022/04/16 04:58:19;;;;;;;54.95;43.38;;;;;;;4.64;100.00;102005.69;5047838;28;20865;-59
2022/04/16 05:00:44;;;;;;;53.30;45.28;;;;;;;4.65;100.00;102007.44;5050844;28;20466;-59
2022/04/16 05:03:09;;;;;;;60.65;45.00;;;;;;;4.49;100.00;101985.75;5062634;28;20036;-58
2022/04/16 05:05:35;;;;;;;53.60;45.53;;;;;;;4.52;100.00;101990.09;5094237;28;20036;-59
2022/04/16 05:08:00;;;;;;;58.53;43.50;;;;;;;4.68;100.00;102017.84;5093529;28;20031;-59
2022/04/16 05:10:25;;;;;;;55.55;44.78;;;;;;;4.71;100.00;102017.84;5063367;28;20036;-62
2022/04/16 05:12:56;;;;;;;53.60;43.83;;;;;;;4.73;100.00;102015.25;5051348;28;20032;-59
2022/04/16 05:15:21;;;;;;;51.28;42.47;;;;;;;4.50;100.00;101976.19;5050752;28;20032;-59
2022/04/16 05:17:46;;;;;;;55.85;46.20;;;;;;;4.79;100.00;102026.53;5051393;28;20035;-58
2022/04/16 05:20:12;;;;;;;59.22;44.17;;;;;;;4.59;100.00;101986.63;5071358;28;20038;-59
2022/04/16 05:22:37;;;;;;;56.33;44.40;;;;;;;4.87;100.00;102032.59;5085765;28;20836;-59
2022/04/16 05:25:03;;;;;;;54.90;44.70;;;;;;;4.88;100.00;102036.06;5051054;28;20024;-59
2022/04/16 05:27:30;;;;;;;58.15;45.47;;;;;;;4.95;100.00;102046.47;5016087;28;20039;-59
2022/04/16 05:30:14;;;;;;;56.28;44.78;;;;;;;4.98;100.00;102036.06;5082088;28;20500;-59
2022/04/16 05:32:42;;;;;;;52.60;43.85;;;;;;;4.90;100.00;102018.72;5052354;28;20036;-59
2022/04/16 05:35:09;;;;;;;60.03;45.13;;;;;;;4.88;100.00;102010.03;5050689;28;20066;-59
2022/04/16 05:37:35;;;;;;;56.75;43.95;;;;;;;5.09;100.00;102036.94;5050449;28;20031;-59
2022/04/16 05:40:03;;;;;;;52.63;43.78;;;;;;;4.58;100.00;101938.03;5016132;28;20127;-59
2022/04/16 05:42:28;;;;;;;58.50;44.38;;;;;;;5.21;100.00;102036.03;5050939;28;20028;-59
2022/04/16 05:45:01;;;;;;;52.42;44.13;;;;;;;5.27;100.00;102041.25;5050750;28;20089;-59
2022/04/16 05:47:27;;;;;;;59.38;43.83;;;;;;;5.33;100.00;102038.63;5050483;28;20059;-59
2022/04/16 05:49:52;;;;;;;54.28;43.70;;;;;;;5.39;100.00;102040.31;5050277;28;20081;-59
2022/04/16 05:52:18;;;;;;;51.72;40.08;;;;;;;5.42;100.00;102050.75;5050401;28;20024;-59
2022/04/16 05:54:43;;;;;;;52.08;43.80;;;;;;;5.47;100.00;102049.88;5050833;28;20109;-59
2022/04/16 05:57:09;;;;;;;55.10;43.00;;;;;;;5.49;100.00;102042.91;5050485;28;20035;-59
2022/04/16 05:59:35;;;;;;;47.28;39.75;;;;;;;5.57;100.00;102053.31;5049868;28;20070;-59
2022/04/16 06:02:00;;;;;;;50.72;40.75;;;;;;;5.61;100.00;102057.66;5047765;28;20817;-59
2022/04/16 06:04:26;;;;;;;47.38;40.22;;;;;;;5.66;100.00;102058.50;5043450;28;20032;-59
2022/04/16 06:06:51;;;;;;;52.67;42.08;;;;;;;5.71;100.00;102058.50;5030157;28;20131;-59
2022/04/16 06:09:16;;;;;;;47.72;40.72;;;;;;;5.76;100.00;102056.72;5032574;28;20059;-59
2022/04/16 06:11:42;;;;;;;49.70;40.75;;;;;;;5.58;100.00;102026.34;5030358;28;20043;-59
2022/04/16 06:14:08;;;;;;;47.63;40.45;;;;;;;5.90;100.00;102066.25;5029414;28;20036;-59
2022/04/16 06:16:33;;;;;;;46.88;37.75;;;;;;;5.94;100.00;102073.22;5030637;28;20131;-59
2022/04/16 06:18:59;;;;;;;51.10;39.55;;;;;;;5.98;100.00;102067.09;5030103;28;20024;-59
2022/04/16 06:21:24;;;;;;;46.00;37.78;;;;;;;6.06;100.00;102073.16;5013742;28;20025;-58
2022/04/16 06:23:51;;;;;;;48.28;38.22;;;;;;;6.06;100.00;102064.44;5029349;28;20820;-59
2022/04/16 06:26:17;;;;;;;41.25;35.60;;;;;;;6.25;100.00;102089.59;5031298;28;20032;-59
2022/04/16 06:28:42;;;;;;;46.55;36.53;;;;;;;6.20;100.00;102069.59;5011085;28;20098;-59
2022/04/16 06:31:08;;;;;;;40.20;35.08;;;;;;;6.38;100.00;102087.78;5028774;28;20067;-59
2022/04/16 06:33:33;;;;;;;42.50;34.85;;;;;;;6.47;100.00;102100.75;5028470;28;20028;-59
2022/04/16 06:35:59;;;;;;;39.45;33.92;;;;;;;6.52;100.00;102093.78;5028516;28;20143;-59
2022/04/16 06:38:24;;;;;;;39.28;32.22;;;;;;;6.57;100.00;102097.22;5030425;28;20079;-59
2022/04/16 06:40:49;;;;;;;37.20;33.20;;;;;;;6.63;100.00;102097.16;5028415;28;20060;-58
2022/04/16 06:43:15;;;;;;;38.60;33.28;;;;;;;6.65;100.00;102085.00;5010770;28;20147;-59
2022/04/16 06:45:40;;;;;;;35.47;31.08;;;;;;;6.32;100.00;102033.00;5029863;28;20025;-59
2022/04/16 06:48:06;;;;;;;38.97;31.98;;;;;;;6.77;100.00;102099.69;5028393;28;20031;-59
2022/04/16 06:50:31;;;;;;;34.88;30.58;;;;;;;6.77;100.00;102084.88;5028533;28;20131;-59
2022/04/16 06:52:56;;;;;;;37.17;30.95;;;;;;;6.85;100.00;102083.09;5030210;28;20036;-59
2022/04/16 06:55:22;;;;;;;34.10;29.75;;;;;;;6.96;100.00;102098.69;5029188;28;20102;-59
2022/04/16 06:57:47;;;;;;;38.80;32.00;;;;;;;6.60;100.00;102029.28;5029320;28;20799;-59
2022/04/16 07:00:13;;;;;;;33.03;29.42;;;;;;;7.06;100.00;102085.50;5030346;28;20031;-58
2022/04/16 07:02:39;;;;;;;42.28;31.48;;;;;;;7.12;100.00;102080.25;5030612;28;20859;-58
2022/04/16 07:05:06;;;;;;;33.55;28.05;;;;;;;7.18;100.00;102088.03;5030687;28;20796;-58
2022/04/16 07:07:32;;;;;;;39.55;27.75;;;;;;;6.67;100.00;101995.28;5033307;28;20025;-59
2022/04/16 07:09:57;;;;;;;44.35;28.95;;;;;;;7.32;100.00;102090.53;5038618;28;20036;-59
2022/04/16 07:12:23;;;;;;;34.78;28.50;;;;;;;7.37;100.00;102088.72;5031972;28;20024;-59
2022/04/16 07:14:48;;;;;;;37.33;28.55;;;;;;;7.46;100.00;102106.06;5031531;28;20028;-59
2022/04/16 07:17:14;;;;;;;38.03;27.90;;;;;;;7.44;100.00;102087.78;5033264;28;20029;-59
2022/04/16 07:19:39;;;;;;;31.38;27.05;;;;;;;7.45;100.00;102070.34;5034337;28;20135;-59
2022/04/16 07:22:05;;;;;;;27.83;24.05;;;;;;;7.65;100.00;102089.28;5034474;28;20047;-59
2022/04/16 07:24:30;;;;;;;32.92;25.67;;;;;;;7.74;100.00;102080.50;5039804;28;20032;-59
2022/04/16 07:26:56;;;;;;;28.95;25.80;;;;;;;7.84;100.00;102082.97;5040801;28;20029;-58
2022/04/16 07:29:22;;;;;;;29.55;23.67;;;;;;;7.96;100.00;102088.06;5042830;28;20032;-58
2022/04/16 07:31:47;;;;;;;29.60;23.05;;;;;;;8.01;100.00;102088.03;5043139;28;20139;-59
2022/04/16 07:34:13;;;;;;;27.13;23.33;;;;;;;8.05;100.00;102082.72;5042670;28;20042;-59
2022/04/16 07:36:38;;;;;;;26.20;22.70;;;;;;;8.17;100.00;102090.41;5061131;28;20029;-58
2022/04/16 07:39:04;;;;;;;25.83;22.40;;;;;;;8.15;100.00;102076.47;5048073;28;20896;-59
2022/04/16 07:41:29;;;;;;;25.63;22.80;;;;;;;8.31;100.00;102086.78;5046108;28;20032;-58
2022/04/16 07:43:55;;;;;;;29.10;21.65;;;;;;;8.41;100.00;102096.25;5048705;28;20072;-59
2022/04/16 07:46:22;;;;;;;26.83;21.20;;;;;;;8.44;100.00;102096.19;5050532;28;20132;-59
2022/04/16 07:48:48;;;;;;;22.17;19.83;;;;;;;8.51;100.00;102088.25;5053396;28;20035;-58
2022/04/16 07:51:13;;;;;;;25.95;21.98;;;;;;;8.59;100.00;102103.81;5064589;28;20168;-59
2022/04/16 07:53:38;;;;;;;26.55;20.35;;;;;;;8.66;100.00;102121.19;5065992;28;20116;-58
2022/04/16 07:56:04;;;;;;;25.15;22.48;;;;;;;8.72;100.00;102106.22;5065692;28;20889;-59
2022/04/16 07:58:29;;;;;;;23.13;20.70;;;;;;;8.83;100.00;102103.47;5068308;28;20706;-59
2022/04/16 08:00:55;;;;;;;23.65;20.48;;;;;;;8.83;100.00;102107.81;5067144;28;20024;-59
2022/04/16 08:03:20;;;;;;;26.73;22.45;;;;;;;8.88;100.00;102109.50;5067235;28;20032;-59
2022/04/16 08:05:46;;;;;;;21.90;19.52;;;;;;;8.94;100.00;102108.53;5093673;28;20032;-58
2022/04/16 08:08:11;;;;;;;25.55;19.63;;;;;;;9.02;100.00;102104.88;5065872;28;20305;-58
2022/04/16 08:10:37;;;;;;;21.80;18.60;;;;;;;9.09;100.00;102106.50;5070038;28;20470;-58
2022/04/16 08:13:05;;;;;;;24.13;17.98;;;;;;;9.16;100.00;102104.66;5091879;28;20363;-58
2022/04/16 08:15:30;;;;;;;23.70;15.68;;;;;;;9.03;100.00;102064.69;5063766;28;20035;-59
2022/04/16 08:17:56;;;;;;;27.55;18.17;;;;;;;9.26;100.00;102100.16;5062226;28;20146;-58
2022/04/16 08:20:22;;;;;;;23.95;18.17;;;;;;;9.27;100.00;102086.97;5045405;28;20664;-59
2022/04/16 08:22:48;;;;;;;20.30;16.33;;;;;;;9.45;100.00;102110.28;5047171;28;20074;-58
2022/04/16 08:27:49;;;;;;;18.77;15.50;;;;;;;9.70;100.00;102121.16;5061286;28;20051;-58
2022/04/16 08:30:16;;;;;;;21.20;17.02;;;;;;;9.73;100.00;102121.13;5071839;28;20036;-58
2022/04/16 08:32:42;;;;;;;17.98;15.32;;;;;;;9.80;100.00;102121.88;5068088;28;20545;-58
2022/04/16 08:35:09;;;;;;;17.42;15.60;;;;;;;9.88;100.00;102120.81;5062618;28;20032;-58
2022/04/16 08:37:34;;;;;;;17.10;14.30;;;;;;;9.95;100.00;102117.19;5060253;28;20089;-58
2022/04/16 08:40:00;;;;;;;20.05;16.77;;;;;;;10.03;100.00;102117.91;5060653;28;20036;-58
2022/04/16 08:42:25;;;;;;;17.35;15.13;;;;;;;10.13;100.00;102106.31;5054774;28;20032;-58
2022/04/16 08:44:51;;;;;;;18.75;14.93;;;;;;;10.31;100.00;102109.50;5036049;28;20117;-59
2022/04/16 08:47:17;;;;;;;18.95;15.35;;;;;;;10.41;100.00;102111.03;5053142;28;20919;-59
2022/04/16 08:49:44;;;;;;;19.75;15.10;;;;;;;10.59;100.00;102118.47;5052483;28;20055;-59
2022/04/16 08:52:10;;;;;;;16.88;15.07;;;;;;;10.62;100.00;102116.63;5051867;28;20127;-59
2022/04/16 08:54:37;;;;;;;17.17;14.18;;;;;;;10.73;100.00;102119.03;5051594;28;20085;-59
2022/04/16 08:57:02;;;;;;;15.75;14.07;;;;;;;10.58;100.00;102080.81;5034218;28;20034;-59
2022/04/16 08:59:27;;;;;;;16.08;14.07;;;;;;;10.82;100.00;102107.41;5051138;28;20750;-59
2022/04/16 09:01:53;;;;;;;21.80;15.07;;;;;;;10.91;100.00;102108.09;5052949;28;20854;-59
2022/04/16 09:04:22;;;;;;;18.48;13.15;;;;;;;11.02;100.00;102107.78;5050571;28;20085;-59
2022/04/16 09:06:58;;;;;;;18.85;13.50;;;;;;;11.01;100.00;102083.28;5050235;28;20229;-59
2022/04/16 09:09:24;;;;;;;17.98;14.82;;;;;;;11.26;100.00;102104.56;5050260;28;20034;-59
2022/04/16 09:11:50;;;;;;;15.50;12.02;;;;;;;11.41;100.00;102108.56;5050400;28;20145;-59
2022/04/16 09:14:15;;;;;;;14.70;12.07;;;;;;;11.50;100.00;102108.31;5051652;28;20047;-59
2022/04/16 09:16:41;;;;;;;12.82;11.18;;;;;;;11.60;100.00;102102.78;5032021;28;20104;-58
2022/04/16 09:19:11;;;;;;;12.02;10.43;;;;;;;11.70;100.00;102103.38;5049843;28;20089;-59
2022/04/16 09:21:37;;;;;;;14.18;11.80;;;;;;;11.74;100.00;102094.53;5049403;28;20094;-59
2022/04/16 09:24:03;;;;;;;18.73;11.00;;;;;;;11.74;100.00;102100.66;5049850;28;20877;-59
2022/04/16 09:26:36;;;;;;;13.52;11.52;;;;;;;11.79;100.00;102118.97;5049932;28;20066;-59
2022/04/16 09:29:07;;;;;;;14.15;10.13;;;;;;;11.91;100.00;102102.81;5050653;28;20060;-59
2022/04/16 09:31:34;;;;;;;12.75;9.73;;;;;;;12.08;100.00;102107.63;5052079;28;20076;-59
2022/04/16 09:34:00;;;;;;;14.52;10.80;;;;;;;12.20;100.00;102108.09;5052032;28;20118;-58
2022/04/16 09:36:26;;;;;;;14.85;9.90;;;;;;;11.81;100.00;102043.41;5051277;28;20962;-59
2022/04/16 09:39:02;;;;;;;14.05;10.02;;;;;;;12.28;100.00;102106.13;5050005;28;20185;-59
2022/04/16 09:41:34;;;;;;;9.20;8.00;;;;;;;12.46;100.00;102120.53;5050652;28;20036;-59
2022/04/16 09:44:03;;;;;;;11.85;9.25;;;;;;;12.87;100.00;102100.78;5049826;28;20068;-59
2022/04/16 09:46:30;;;;;;;8.55;7.65;;;;;;;13.33;100.00;102102.78;5050173;28;20031;-59
2022/04/16 09:49:02;;;;;;;9.63;8.27;;;;;;;13.60;100.00;102098.31;5048781;28;20940;-59
2022/04/16 09:51:27;;;;;;;9.07;7.20;;;;;;;13.68;100.00;102090.97;5049181;28;20024;-59
2022/04/16 09:53:53;;;;;;;9.02;7.40;;;;;;;13.54;100.00;102083.56;5048928;28;20082;-59
2022/04/16 09:56:18;;;;;;;12.18;9.07;;;;;;;13.80;100.00;102107.25;5049270;28;20031;-58
2022/04/16 09:58:51;;;;;;;9.27;6.97;;;;;;;13.94;100.00;102097.94;5050192;28;20028;-58
2022/04/16 10:01:16;;;;;;;10.20;7.15;;;;;;;14.01;100.00;102088.88;5050111;28;20039;-58
2022/04/16 10:03:42;;;;;;;9.85;7.43;;;;;;;14.11;100.00;102099.06;5048782;28;20031;-59
2022/04/16 10:06:08;;;;;;;7.90;7.10;;;;;;;14.19;100.00;102094.31;5049249;28;20032;-59
2022/04/16 10:08:34;;;;;;;10.05;7.22;;;;;;;14.40;100.00;102097.97;5049428;28;20153;-59
2022/04/16 10:11:03;;;;;;;8.57;6.97;;;;;;;14.42;100.00;102087.34;5049124;28;20070;-59
2022/04/16 10:13:34;;;;;;;10.52;7.32;;;;;;;14.81;100.00;102099.84;5048938;28;20139;-59
2022/04/16 10:16:46;;;;;;;8.02;6.65;;;;;;;14.93;100.00;102092.34;5031490;28;20255;-59
2022/04/16 10:19:17;;;;;;;9.35;6.75;;;;;;;14.99;100.00;102086.78;4950797;28;20092;-59
2022/04/16 10:21:42;;;;;;;10.70;6.80;;;;;;;15.22;98.42;102089.31;4968131;28;20466;-59
2022/04/16 10:24:08;;;;;;;8.13;5.88;;;;;;;15.12;91.49;102066.81;5012743;28;20553;-59
2022/04/16 10:26:38;;;;;;;7.13;5.85;;;;;;;15.15;98.00;102082.56;5049068;28;20020;-59
2022/04/16 10:29:03;;;;;;;6.50;5.20;;;;;;;15.04;92.11;102101.53;5048982;28;20032;-59
2022/04/16 10:31:32;;;;;;;10.00;5.43;;;;;;;14.87;93.09;102082.84;5048856;28;20063;-59
2022/04/16 10:34:03;;;;;;;6.97;6.15;;;;;;;14.67;94.78;102081.00;5048310;28;20031;-59
2022/04/16 10:36:39;;;;;;;7.53;6.07;;;;;;;14.29;93.81;102034.91;5050566;28;20557;-59
2022/04/16 10:39:14;;;;;;;7.80;6.22;;;;;;;14.87;95.40;102072.25;5049427;28;20074;-59
2022/04/16 10:41:39;;;;;;;6.57;5.63;;;;;;;15.12;97.96;102067.66;5048945;28;20096;-59
2022/04/16 10:44:08;;;;;;;7.70;6.03;;;;;;;15.19;94.94;102058.53;5048873;28;20016;-59
2022/04/16 10:46:43;;;;;;;9.63;6.00;;;;;;;14.92;92.06;102077.38;5049384;28;20054;-59
2022/04/16 10:49:12;;;;;;;6.72;4.93;;;;;;;14.76;93.72;102069.22;5048340;28;20132;-59
2022/04/16 10:51:38;;;;;;;6.82;4.68;;;;;;;14.81;92.99;102065.44;5049047;28;20055;-59
2022/04/16 10:54:13;;;;;;;6.63;4.65;;;;;;;14.88;91.17;102046.66;5048491;28;20024;-59
2022/04/16 10:56:40;;;;;;;5.40;4.55;;;;;;;15.12;90.77;102067.66;5051032;28;20034;-58
2022/04/16 10:59:07;;;;;;;5.40;4.28;;;;;;;15.14;90.67;102044.63;5048537;28;20361;-59
2022/04/16 11:01:33;;;;;;;7.07;4.78;;;;;;;15.36;89.60;102049.88;5048276;28;21137;-59
2022/04/16 11:03:58;;;;;;;6.53;4.82;;;;;;;15.24;85.36;102043.31;5048444;28;20058;-58
2022/04/16 11:06:34;;;;;;;8.43;4.22;;;;;;;15.29;86.48;102043.13;5048391;28;20043;-58
2022/04/16 11:09:00;;;;;;;4.95;3.42;;;;;;;15.29;87.40;102041.34;5048671;28;20028;-59
2022/04/16 11:11:25;;;;;;;6.75;4.07;;;;;;;15.30;86.22;102029.81;5051745;28;20071;-58
2022/04/16 11:13:51;;;;;;;7.95;4.35;;;;;;;15.49;89.58;102055.53;5052301;28;20978;-58
2022/04/16 11:16:21;;;;;;;6.68;4.40;;;;;;;15.49;83.96;102066.13;5068342;28;20078;-58
2022/04/16 11:18:47;;;;;;;5.85;3.58;;;;;;;15.50;82.47;102057.25;5052216;28;20027;-59